Time;durP1;ratioP1;P1;durP2;ratioP2;P2;SDS_P1;SDS_P2;PMS_P1;PMS_P2;Temp;Humidity;BMP_temperature;BMP_pressure;BME280_temperature;BME280_humidity;BME280_pressure;Samples;Min_cycle;Max_cycle;Signal;HPM_P1;HPM_P2
2022/09/20 00:00:40;;;;;;;7.55;2.45;;;;;;;;;;5098728;28;20477;-78
2022/09/20 00:03:05;;;;;;;2.53;1.60;;;;;;;;;;5098130;28;20063;-78
2022/09/20 00:05:34;;;;;;;3.65;1.80;;;;;;;;;;5099191;28;20028;-78
2022/09/20 00:08:00;;;;;;;14.18;1.77;;;;;;;;;;5102281;28;20024;-78
2022/09/20 00:10:26;;;;;;;4.22;1.73;;;;;;;;;;5102569;28;20024;-78
2022/09/20 00:12:51;;;;;;;7.07;2.00;;;;;;;;;;5104291;28;20058;-78
2022/09/20 00:15:16;;;;;;;3.80;1.85;;;;;;;;;;5101332;28;20024;-79
2022/09/20 00:17:42;;;;;;;13.68;1.90;;;;;;;;;;5105178;28;20058;-78
2022/09/20 00:20:08;;;;;;;5.17;1.47;;;;;;;;;;5106273;28;20020;-78
2022/09/20 00:22:36;;;;;;;5.90;1.20;;;;;;;;;;5106877;28;20300;-79
2022/09/20 00:25:01;;;;;;;48.78;1.70;;;;;;;;;;5106639;28;20119;-80
2022/09/20 00:27:26;;;;;;;0.80;0.60;;;;;;;;;;5102515;28;20047;-78
2022/09/20 00:29:52;;;;;;;1.47;0.60;;;;;;;;;;5106211;28;20263;-78
2022/09/20 00:32:18;;;;;;;2.58;0.88;;;;;;;;;;5104145;28;20260;-78
2022/09/20 00:37:27;;;;;;;0.80;0.60;;;;;;;;;;5107004;28;20026;-78
2022/09/20 00:39:52;;;;;;;4.13;0.90;;;;;;;;;;5106376;28;20107;-78
2022/09/20 00:42:17;;;;;;;5.23;0.80;;;;;;;;;;5105374;28;20036;-78
2022/09/20 00:44:50;;;;;;;3.27;0.80;;;;;;;;;;5105200;28;20276;-78
2022/09/20 00:47:36;;;;;;;6.45;0.75;;;;;;;;;;5104689;28;20304;-78
2022/09/20 00:50:21;;;;;;;1.88;0.90;;;;;;;;;;5100948;28;20111;-78
2022/09/20 00:52:50;;;;;;;3.67;1.00;;;;;;;;;;5098973;28;20027;-77
2022/09/20 00:55:16;;;;;;;3.33;0.93;;;;;;;;;;5100321;28;20119;-78
2022/09/20 00:57:44;;;;;;;2.28;0.98;;;;;;;;;;5105435;28;20051;-77
2022/09/20 01:00:11;;;;;;;8.88;1.30;;;;;;;;;;5103454;28;20024;-78
2022/09/20 01:02:40;;;;;;;3.40;1.02;;;;;;;;;;5100213;28;20425;-78
2022/09/20 01:05:07;;;;;;;6.00;2.17;;;;;;;;;;5101091;28;20028;-78
2022/09/20 01:07:33;;;;;;;3.28;1.35;;;;;;;;;;5100247;28;20053;-78
2022/09/20 01:09:58;;;;;;;1.75;0.90;;;;;;;;;;5097847;28;20020;-77
2022/09/20 01:12:28;;;;;;;4.70;1.10;;;;;;;;;;5098694;28;20024;-78
2022/09/20 01:14:54;;;;;;;5.93;1.05;;;;;;;;;;5099935;28;20039;-78
2022/09/20 01:17:23;;;;;;;3.10;1.10;;;;;;;;;;5097848;28;20020;-78
2022/09/20 01:20:11;;;;;;;4.38;1.05;;;;;;;;;;5098615;28;20028;-78
2022/09/20 01:23:01;;;;;;;4.63;1.40;;;;;;;;;;5098400;28;20036;-78
2022/09/20 01:26:04;;;;;;;2.53;1.33;;;;;;;;;;5096236;28;20052;-78
2022/09/20 01:28:29;;;;;;;4.72;1.45;;;;;;;;;;5030397;28;20078;-78
2022/09/20 01:31:08;;;;;;;2.55;1.30;;;;;;;;;;5098812;28;20115;-78
2022/09/20 01:33:52;;;;;;;2.35;1.38;;;;;;;;;;5098285;28;20101;-77
2022/09/20 01:36:51;;;;;;;2.53;1.60;;;;;;;;;;5098455;28;20043;-78
2022/09/20 01:39:47;;;;;;;4.82;1.90;;;;;;;;;;5097120;28;20028;-77
2022/09/20 01:42:13;;;;;;;4.22;1.65;;;;;;;;;;5095999;28;20023;-78
2022/09/20 01:45:23;;;;;;;5.85;1.95;;;;;;;;;;5095398;28;20024;-77
2022/09/20 01:48:07;;;;;;;4.95;1.80;;;;;;;;;;5086030;28;20489;-77
2022/09/20 01:50:39;;;;;;;8.77;2.00;;;;;;;;;;5095660;28;20028;-78
2022/09/20 01:53:13;;;;;;;3.95;1.90;;;;;;;;;;5095513;28;20019;-78
2022/09/20 01:56:17;;;;;;;5.03;1.98;;;;;;;;;;5097037;28;20119;-78
2022/09/20 01:59:20;;;;;;;7.60;1.92;;;;;;;;;;5094927;28;20020;-78
2022/09/20 02:02:00;;;;;;;4.03;2.00;;;;;;;;;;5095893;28;20031;-78
2022/09/20 02:04:42;;;;;;;4.35;2.13;;;;;;;;;;5094655;28;20389;-78
2022/09/20 02:07:21;;;;;;;5.13;1.92;;;;;;;;;;5096258;28;20023;-78
2022/09/20 02:10:18;;;;;;;4.90;2.20;;;;;;;;;;5096265;28;20030;-78
2022/09/20 02:13:03;;;;;;;5.32;1.80;;;;;;;;;;5095927;28;20032;-77
2022/09/20 02:15:47;;;;;;;;;;;;;;;;;;5095681;28;20027;-78
2022/09/20 02:18:35;;;;;;;2.97;1.63;;;;;;;;;;5094469;28;19962;-78
2022/09/20 02:21:31;;;;;;;5.07;1.85;;;;;;;;;;5094361;28;20519;-78
2022/09/20 02:24:19;;;;;;;3.55;1.73;;;;;;;;;;5094155;28;20048;-78
2022/09/20 02:27:15;;;;;;;5.32;1.77;;;;;;;;;;5094136;28;20069;-77
2022/09/20 02:29:52;;;;;;;7.20;1.80;;;;;;;;;;5094083;28;20078;-78
2022/09/20 02:32:51;;;;;;;3.58;1.88;;;;;;;;;;5095444;28;20362;-78
2022/09/20 02:35:41;;;;;;;5.18;1.90;;;;;;;;;;5095119;28;20040;-78
2022/09/20 02:38:31;;;;;;;6.63;2.10;;;;;;;;;;5093746;28;20039;-78
2022/09/20 02:41:18;;;;;;;6.45;2.00;;;;;;;;;;5094924;28;20035;-77
2022/09/20 02:43:43;;;;;;;4.72;1.88;;;;;;;;;;5093592;28;20127;-78
2022/09/20 02:46:11;;;;;;;7.27;2.30;;;;;;;;;;5093539;28;20107;-77
2022/09/20 02:48:59;;;;;;;5.97;2.08;;;;;;;;;;5094957;28;20427;-78
2022/09/20 02:51:41;;;;;;;5.72;1.90;;;;;;;;;;5094613;28;20488;-77
2022/09/20 02:54:15;;;;;;;2.30;1.80;;;;;;;;;;5093946;28;20441;-77
2022/09/20 02:56:51;;;;;;;4.50;2.10;;;;;;;;;;5093280;28;20016;-77
2022/09/20 02:59:39;;;;;;;7.20;1.98;;;;;;;;;;5094432;28;20020;-77
2022/09/20 03:02:29;;;;;;;8.02;2.00;;;;;;;;;;5094480;28;20028;-77
2022/09/20 03:05:13;;;;;;;9.07;2.17;;;;;;;;;;5094572;28;20059;-77
2022/09/20 03:07:56;;;;;;;4.20;1.98;;;;;;;;;;5094199;28;20020;-77
2022/09/20 03:10:40;;;;;;;6.13;2.17;;;;;;;;;;5094587;28;20028;-77
2022/09/20 03:13:16;;;;;;;3.25;1.95;;;;;;;;;;5094379;28;20027;-78
2022/09/20 03:16:03;;;;;;;5.20;2.00;;;;;;;;;;5094671;28;20020;-78
2022/09/20 03:18:35;;;;;;;4.68;2.17;;;;;;;;;;5095404;28;20102;-78
2022/09/20 03:21:30;;;;;;;7.80;2.20;;;;;;;;;;5095334;28;20020;-78
2022/09/20 03:24:16;;;;;;;6.38;2.53;;;;;;;;;;5093893;28;20027;-78
2022/09/20 03:26:56;;;;;;;6.10;2.10;;;;;;;;;;5094471;28;20028;-78
2022/09/20 03:29:40;;;;;;;6.13;2.28;;;;;;;;;;5094514;28;20035;-78
2022/09/20 03:32:27;;;;;;;5.57;2.30;;;;;;;;;;5094470;28;20054;-78
2022/09/20 03:34:59;;;;;;;6.15;2.20;;;;;;;;;;5094732;28;20063;-78
2022/09/20 03:37:33;;;;;;;6.32;2.30;;;;;;;;;;5095465;28;20468;-78
2022/09/20 03:40:32;;;;;;;4.32;2.10;;;;;;;;;;5095562;28;20028;-78
2022/09/20 03:43:27;;;;;;;8.07;1.98;;;;;;;;;;5093852;28;20055;-78
2022/09/20 03:45:58;;;;;;;;;;;;;;;;;;5081589;28;20036;-78
2022/09/20 03:48:52;;;;;;;2.72;1.55;;;;;;;;;;5093072;28;20291;-78
2022/09/20 03:51:40;;;;;;;5.45;1.90;;;;;;;;;;5094988;28;20035;-78
2022/09/20 03:54:23;;;;;;;8.05;2.10;;;;;;;;;;5095330;28;20063;-78
2022/09/20 03:57:26;;;;;;;5.03;1.88;;;;;;;;;;5094959;28;20020;-78
2022/09/20 04:00:13;;;;;;;4.53;1.85;;;;;;;;;;5093729;28;20034;-77
2022/09/20 04:03:20;;;;;;;3.30;1.67;;;;;;;;;;5095169;28;20019;-78
2022/09/20 04:06:03;;;;;;;6.22;1.98;;;;;;;;;;5094812;28;20100;-78
2022/09/20 04:09:05;;;;;;;5.15;1.85;;;;;;;;;;5094734;28;20028;-78
2022/09/20 04:11:46;;;;;;;8.32;2.10;;;;;;;;;;5094583;28;20027;-78
2022/09/20 04:14:31;;;;;;;4.95;1.88;;;;;;;;;;5094799;28;20388;-78
2022/09/20 04:17:20;;;;;;;5.43;2.50;;;;;;;;;;5094470;28;20012;-78
2022/09/20 04:20:02;;;;;;;4.05;2.10;;;;;;;;;;5093523;28;20031;-77
2022/09/20 04:22:28;;;;;;;7.20;2.30;;;;;;;;;;5093518;28;20025;-77
2022/09/20 04:25:12;;;;;;;8.50;2.28;;;;;;;;;;5093619;28;20416;-77
2022/09/20 04:28:00;;;;;;;6.40;2.43;;;;;;;;;;5096749;28;20393;-78
2022/09/20 04:30:30;;;;;;;7.35;2.72;;;;;;;;;;5098262;28;20245;-77
2022/09/20 04:33:10;;;;;;;13.20;2.97;;;;;;;;;;5097993;28;20020;-77
2022/09/20 04:39:05;;;;;;;6.85;3.05;;;;;;;;;;5098926;28;20019;-76
2022/09/20 04:42:00;;;;;;;10.55;3.42;;;;;;;;;;5098428;28;20076;-76
2022/09/20 04:45:13;;;;;;;8.63;3.38;;;;;;;;;;5098696;28;20415;-78
2022/09/20 04:47:59;;;;;;;6.28;3.35;;;;;;;;;;5061822;28;20059;-78
2022/09/20 04:50:49;;;;;;;11.25;3.55;;;;;;;;;;5098077;28;20115;-76
2022/09/20 04:53:39;;;;;;;7.88;3.90;;;;;;;;;;5097214;28;20079;-76
2022/09/20 04:56:41;;;;;;;8.57;3.58;;;;;;;;;;5096993;28;20055;-77
2022/09/20 04:59:24;;;;;;;13.10;4.70;;;;;;;;;;5096864;28;20024;-77
2022/09/20 05:02:27;;;;;;;9.52;4.32;;;;;;;;;;5096926;28;20397;-77
2022/09/20 05:05:34;;;;;;;8.05;4.25;;;;;;;;;;5097017;28;20012;-76
2022/09/20 05:08:27;;;;;;;11.43;4.43;;;;;;;;;;5096807;28;20027;-76
2022/09/20 05:11:11;;;;;;;10.20;4.38;;;;;;;;;;5095395;28;20560;-77
2022/09/20 05:13:56;;;;;;;9.82;4.30;;;;;;;;;;5096670;28;20059;-77
2022/09/20 05:16:49;;;;;;;14.18;4.25;;;;;;;;;;5096761;28;20028;-77
2022/09/20 05:20:01;;;;;;;9.35;4.22;;;;;;;;;;5096937;28;20024;-77
2022/09/20 05:22:57;;;;;;;7.35;3.75;;;;;;;;;;5076705;28;20047;-77
2022/09/20 05:25:41;;;;;;;11.15;4.75;;;;;;;;;;5094981;28;20024;-77
2022/09/20 05:28:29;;;;;;;7.38;4.20;;;;;;;;;;5094816;28;20469;-77
2022/09/20 05:31:00;;;;;;;9.38;4.18;;;;;;;;;;5096133;28;20392;-77
2022/09/20 05:33:43;;;;;;;10.05;4.10;;;;;;;;;;5096485;28;20055;-77
2022/09/20 05:36:30;;;;;;;10.05;3.97;;;;;;;;;;5096271;28;20424;-77
2022/09/20 05:39:13;;;;;;;8.77;4.00;;;;;;;;;;5094762;28;20028;-77
2022/09/20 05:42:08;;;;;;;7.10;4.07;;;;;;;;;;5094823;28;20028;-77
2022/09/20 05:44:54;;;;;;;9.75;3.97;;;;;;;;;;5096846;28;20381;-77
2022/09/20 05:47:43;;;;;;;12.40;4.63;;;;;;;;;;5096537;28;20103;-77
2022/09/20 05:50:26;;;;;;;10.98;4.78;;;;;;;;;;5096561;28;20028;-77
2022/09/20 05:53:29;;;;;;;9.38;4.68;;;;;;;;;;5095059;28;20114;-77
2022/09/20 05:56:07;;;;;;;16.65;5.20;;;;;;;;;;5096601;28;20028;-78
2022/09/20 05:58:46;;;;;;;14.32;4.68;;;;;;;;;;5096446;28;20031;-78
2022/09/20 06:01:24;;;;;;;8.35;4.35;;;;;;;;;;5096868;28;20046;-78
2022/09/20 06:03:56;;;;;;;11.15;4.78;;;;;;;;;;5097056;28;20516;-78
2022/09/20 06:06:46;;;;;;;9.35;4.43;;;;;;;;;;5096270;28;20473;-77
2022/09/20 06:09:39;;;;;;;12.40;5.10;;;;;;;;;;5095183;28;20024;-78
2022/09/20 06:12:34;;;;;;;11.50;5.10;;;;;;;;;;5094892;28;20031;-78
2022/09/20 06:15:18;;;;;;;13.07;5.10;;;;;;;;;;5096593;28;20024;-77
2022/09/20 06:18:20;;;;;;;14.77;5.38;;;;;;;;;;5096077;28;20473;-77
2022/09/20 06:20:59;;;;;;;11.57;5.03;;;;;;;;;;5055620;28;20028;-78
2022/09/20 06:23:24;;;;;;;15.43;5.25;;;;;;;;;;5095799;28;20024;-77
2022/09/20 06:25:56;;;;;;;14.50;5.43;;;;;;;;;;5095728;28;20112;-77
2022/09/20 06:28:32;;;;;;;11.27;5.35;;;;;;;;;;5095543;28;20129;-77
2022/09/20 06:30:58;;;;;;;10.05;5.60;;;;;;;;;;5095837;28;20526;-77
2022/09/20 06:33:27;;;;;;;15.82;6.13;;;;;;;;;;5095431;28;20028;-76
2022/09/20 06:42:19;;;;;;;16.73;6.05;;;;;;;;;;5095046;28;20153;-77
2022/09/20 06:44:44;;;;;;;11.40;5.73;;;;;;;;;;5094819;28;20085;-76
2022/09/20 06:47:10;;;;;;;9.60;4.87;;;;;;;;;;5093355;28;20341;-77
2022/09/20 06:49:35;;;;;;;11.55;4.88;;;;;;;;;;5094148;28;20249;-76
2022/09/20 06:52:04;;;;;;;10.25;5.18;;;;;;;;;;5094835;28;20461;-76
2022/09/20 06:54:29;;;;;;;9.95;4.70;;;;;;;;;;5093469;28;20118;-76
2022/09/20 06:56:54;;;;;;;11.38;5.00;;;;;;;;;;5094412;28;20051;-78
2022/09/20 06:59:20;;;;;;;9.07;4.50;;;;;;;;;;5094675;28;20024;-76
2022/09/20 07:01:46;;;;;;;11.52;4.72;;;;;;;;;;5094678;28;20051;-77
2022/09/20 07:04:11;;;;;;;9.43;4.47;;;;;;;;;;5092988;28;20027;-76
2022/09/20 07:06:36;;;;;;;9.93;5.17;;;;;;;;;;5094530;28;20031;-76
2022/09/20 07:09:02;;;;;;;8.13;4.55;;;;;;;;;;5094295;28;20260;-76
2022/09/20 07:11:27;;;;;;;12.00;4.95;;;;;;;;;;5094748;28;20052;-76
2022/09/20 07:13:54;;;;;;;11.13;4.70;;;;;;;;;;5094413;28;20027;-76
2022/09/20 07:16:20;;;;;;;9.60;4.85;;;;;;;;;;5094609;28;20267;-77
2022/09/20 07:18:46;;;;;;;9.07;4.65;;;;;;;;;;5094545;28;20461;-77
2022/09/20 07:21:14;;;;;;;11.27;4.60;;;;;;;;;;5094605;28;20396;-77
2022/09/20 07:23:40;;;;;;;10.07;4.03;;;;;;;;;;5092972;28;20046;-77
2022/09/20 07:26:11;;;;;;;12.65;4.55;;;;;;;;;;5094216;28;20028;-75
2022/09/20 07:28:37;;;;;;;13.05;5.00;;;;;;;;;;5093980;28;20028;-76
2022/09/20 07:31:02;;;;;;;9.53;4.47;;;;;;;;;;5092533;28;20020;-77
2022/09/20 07:33:27;;;;;;;15.13;4.90;;;;;;;;;;5092702;28;20325;-76
2022/09/20 07:35:53;;;;;;;9.15;4.70;;;;;;;;;;5094244;28;20046;-77
2022/09/20 07:38:21;;;;;;;9.32;4.68;;;;;;;;;;5094080;28;20047;-77
2022/09/20 07:41:01;;;;;;;13.98;5.20;;;;;;;;;;5092794;28;20058;-77
2022/09/20 07:43:28;;;;;;;11.20;5.10;;;;;;;;;;5092633;28;20050;-77
2022/09/20 07:45:58;;;;;;;12.98;4.95;;;;;;;;;;5093786;28;20070;-76
2022/09/20 07:48:41;;;;;;;16.27;5.85;;;;;;;;;;5094316;28;20020;-76
2022/09/20 07:51:09;;;;;;;13.98;5.25;;;;;;;;;;5103699;28;20028;-76
2022/09/20 07:53:35;;;;;;;16.10;5.93;;;;;;;;;;5110989;28;20042;-77
2022/09/20 07:56:06;;;;;;;12.73;6.30;;;;;;;;;;5111186;28;20107;-77
2022/09/20 07:58:34;;;;;;;19.15;6.55;;;;;;;;;;5110517;28;20084;-77
2022/09/20 08:01:08;;;;;;;17.08;6.68;;;;;;;;;;5107806;28;20031;-77
2022/09/20 08:03:34;;;;;;;11.73;6.60;;;;;;;;;;5111096;28;20020;-76
2022/09/20 08:06:08;;;;;;;13.90;6.90;;;;;;;;;;5111545;28;20028;-77
2022/09/20 08:08:35;;;;;;;17.48;6.45;;;;;;;;;;5110536;28;20101;-76
2022/09/20 08:11:04;;;;;;;15.65;6.88;;;;;;;;;;5111717;28;20031;-77
2022/09/20 08:13:29;;;;;;;13.15;7.07;;;;;;;;;;5111010;28;20044;-77
2022/09/20 08:16:02;;;;;;;15.85;6.80;;;;;;;;;;5109645;28;20076;-77
2022/09/20 08:18:28;;;;;;;13.77;6.88;;;;;;;;;;5109759;28;20469;-78
2022/09/20 08:20:54;;;;;;;17.42;6.88;;;;;;;;;;5111210;28;20039;-77
2022/09/20 08:23:19;;;;;;;13.60;5.78;;;;;;;;;;5109375;28;20098;-77
2022/09/20 08:25:46;;;;;;;12.35;6.07;;;;;;;;;;5110993;28;20024;-77
2022/09/20 08:28:11;;;;;;;11.05;6.88;;;;;;;;;;5108836;28;20026;-77
2022/09/20 08:30:36;;;;;;;16.63;6.18;;;;;;;;;;5109588;28;20088;-77
2022/09/20 08:33:02;;;;;;;13.80;5.53;;;;;;;;;;5109523;28;20024;-77
2022/09/20 08:35:28;;;;;;;17.75;5.82;;;;;;;;;;5105835;28;20027;-77
2022/09/20 08:37:54;;;;;;;11.82;6.10;;;;;;;;;;5099101;28;20016;-77
2022/09/20 08:40:22;;;;;;;13.48;5.80;;;;;;;;;;5093831;28;20039;-77
2022/09/20 08:42:48;;;;;;;14.43;5.75;;;;;;;;;;5093587;28;20392;-77
2022/09/20 08:45:20;;;;;;;11.07;5.40;;;;;;;;;;5093756;28;20024;-77
2022/09/20 08:47:53;;;;;;;10.20;5.60;;;;;;;;;;5092457;28;20024;-77
2022/09/20 08:50:19;;;;;;;10.35;5.38;;;;;;;;;;5092042;28;20389;-77
2022/09/20 08:52:48;;;;;;;10.48;5.05;;;;;;;;;;5093220;28;20024;-77
2022/09/20 08:55:15;;;;;;;10.75;4.80;;;;;;;;;;5093055;28;20024;-77
2022/09/20 08:57:40;;;;;;;6.60;4.40;;;;;;;;;;5092909;28;20114;-76
2022/09/20 09:00:16;;;;;;;12.75;4.47;;;;;;;;;;5092874;28;20028;-76
2022/09/20 09:02:41;;;;;;;9.05;4.75;;;;;;;;;;5093152;28;20031;-76
2022/09/20 09:05:27;;;;;;;13.85;6.32;;;;;;;;;;5091337;28;20024;-76
2022/09/20 09:07:52;;;;;;;8.43;4.60;;;;;;;;;;5092895;28;20046;-75
2022/09/20 09:10:17;;;;;;;12.43;3.88;;;;;;;;;;5092725;28;20020;-76
2022/09/20 09:12:45;;;;;;;8.02;3.20;;;;;;;;;;5095080;28;20119;-76
2022/09/20 09:15:34;;;;;;;5.18;3.00;;;;;;;;;;5096584;28;20024;-77
2022/09/20 09:18:00;;;;;;;6.05;2.95;;;;;;;;;;5084564;28;20043;-77
2022/09/20 09:20:26;;;;;;;8.13;3.25;;;;;;;;;;5096459;28;20023;-77
2022/09/20 09:23:01;;;;;;;5.25;2.85;;;;;;;;;;5096558;28;20369;-77
2022/09/20 09:25:33;;;;;;;7.65;2.63;;;;;;;;;;5095089;28;20020;-77
2022/09/20 09:28:00;;;;;;;5.45;2.70;;;;;;;;;;5096321;28;20028;-77
2022/09/20 09:30:30;;;;;;;7.40;2.92;;;;;;;;;;5094953;28;20032;-77
2022/09/20 09:33:27;;;;;;;4.72;2.40;;;;;;;;;;5094985;28;20031;-77
2022/09/20 09:36:03;;;;;;;5.05;2.25;;;;;;;;;;5096343;28;20024;-76
2022/09/20 09:38:31;;;;;;;7.40;2.60;;;;;;;;;;5094873;28;20035;-77
2022/09/20 09:40:59;;;;;;;4.70;2.47;;;;;;;;;;5096968;28;20385;-77
2022/09/20 09:43:31;;;;;;;6.78;2.38;;;;;;;;;;5094713;28;20035;-77
2022/09/20 09:46:20;;;;;;;5.90;3.08;;;;;;;;;;5094641;28;20028;-76
2022/09/20 09:48:48;;;;;;;5.07;2.78;;;;;;;;;;5094892;28;20051;-77
2022/09/20 09:51:19;;;;;;;5.05;2.20;;;;;;;;;;5096253;28;20016;-77
2022/09/20 09:53:47;;;;;;;5.15;2.65;;;;;;;;;;5096244;28;20150;-77
2022/09/20 09:56:46;;;;;;;4.03;2.30;;;;;;;;;;5094550;28;20477;-77
2022/09/20 09:59:46;;;;;;;10.85;3.08;;;;;;;;;;5067295;28;20032;-77
2022/09/20 10:02:39;;;;;;;3.33;2.10;;;;;;;;;;5096026;28;20016;-77
2022/09/20 10:05:28;;;;;;;3.85;2.20;;;;;;;;;;5094852;28;20023;-77
2022/09/20 10:08:15;;;;;;;6.07;2.45;;;;;;;;;;5094434;28;20031;-77
2022/09/20 10:10:52;;;;;;;7.65;2.13;;;;;;;;;;5095822;28;20024;-77
2022/09/20 10:13:30;;;;;;;4.07;2.15;;;;;;;;;;5095654;28;20126;-77
2022/09/20 10:16:09;;;;;;;5.20;2.65;;;;;;;;;;5095689;28;20027;-77
2022/09/20 10:18:56;;;;;;;3.85;1.83;;;;;;;;;;5095618;28;20066;-77
2022/09/20 10:21:27;;;;;;;4.20;1.90;;;;;;;;;;5095313;28;20062;-76
2022/09/20 10:24:00;;;;;;;4.97;2.05;;;;;;;;;;5093795;28;20032;-77
2022/09/20 10:26:50;;;;;;;3.20;2.10;;;;;;;;;;5096119;28;20063;-77
2022/09/20 10:29:58;;;;;;;3.00;1.90;;;;;;;;;;5094544;28;20059;-77
2022/09/20 10:32:53;;;;;;;2.17;1.73;;;;;;;;;;5064738;28;20043;-77
2022/09/20 10:35:27;;;;;;;3.22;1.83;;;;;;;;;;5096156;28;20023;-77
2022/09/20 10:38:05;;;;;;;;;;;;;;;;;;5094872;28;20027;-77
2022/09/20 10:43:54;;;;;;;6.35;1.60;;;;;;;;;;5095514;28;20066;-77
2022/09/20 10:46:43;;;;;;;2.17;1.27;;;;;;;;;;5095811;28;20056;-77
2022/09/20 10:49:25;;;;;;;3.08;1.33;;;;;;;;;;5095585;28;20031;-78
2022/09/20 10:52:15;;;;;;;3.45;1.10;;;;;;;;;;5094852;28;20020;-77
2022/09/20 10:55:10;;;;;;;4.53;1.15;;;;;;;;;;5093326;28;20361;-77
2022/09/20 10:57:54;;;;;;;1.90;1.38;;;;;;;;;;5093323;28;20024;-77
2022/09/20 11:00:21;;;;;;;4.72;1.10;;;;;;;;;;5093339;28;20097;-77
2022/09/20 11:03:14;;;;;;;3.97;1.52;;;;;;;;;;5094826;28;20103;-77
2022/09/20 11:05:49;;;;;;;3.28;1.52;;;;;;;;;;5094533;28;20097;-76
2022/09/20 11:08:18;;;;;;;3.90;1.75;;;;;;;;;;5094332;28;20473;-77
2022/09/20 11:11:01;;;;;;;5.20;1.60;;;;;;;;;;5093092;28;20115;-77
2022/09/20 11:13:37;;;;;;;3.03;1.58;;;;;;;;;;5094459;28;20038;-77
2022/09/20 11:16:15;;;;;;;3.25;1.77;;;;;;;;;;5094343;28;20434;-77
2022/09/20 11:19:00;;;;;;;4.20;1.70;;;;;;;;;;5092741;28;20027;-76
2022/09/20 11:21:38;;;;;;;3.72;1.60;;;;;;;;;;5092791;28;20027;-76
2022/09/20 11:24:12;;;;;;;4.07;1.95;;;;;;;;;;5092832;28;20027;-77
2022/09/20 11:26:48;;;;;;;2.60;1.10;;;;;;;;;;5092777;28;20032;-76
2022/09/20 11:29:27;;;;;;;3.08;1.17;;;;;;;;;;5094229;28;20387;-77
2022/09/20 11:31:56;;;;;;;2.15;1.30;;;;;;;;;;5092822;28;20031;-76
2022/09/20 11:34:27;;;;;;;2.15;1.13;;;;;;;;;;5093859;28;20024;-76
2022/09/20 11:36:57;;;;;;;3.67;1.30;;;;;;;;;;5093839;28;20530;-76
2022/09/20 11:39:36;;;;;;;2.40;1.40;;;;;;;;;;5093985;28;20052;-76
2022/09/20 11:42:04;;;;;;;2.83;1.10;;;;;;;;;;5092617;28;20035;-77
2022/09/20 11:44:30;;;;;;;3.80;1.40;;;;;;;;;;5092738;28;20023;-76
2022/09/20 11:47:05;;;;;;;2.72;1.27;;;;;;;;;;5094151;28;20028;-76
2022/09/20 11:49:51;;;;;;;2.90;1.17;;;;;;;;;;5093903;28;20034;-78
2022/09/20 11:52:57;;;;;;;3.03;1.30;;;;;;;;;;5094043;28;20102;-76
2022/09/20 11:55:33;;;;;;;2.97;1.20;;;;;;;;;;5093833;28;20055;-77
2022/09/20 11:58:06;;;;;;;1.40;1.00;;;;;;;;;;5092162;28;20030;-77
2022/09/20 12:00:35;;;;;;;1.40;1.05;;;;;;;;;;5092255;28;20051;-77
2022/09/20 12:03:03;;;;;;;2.60;1.08;;;;;;;;;;5093802;28;20039;-77
2022/09/20 12:05:34;;;;;;;2.03;1.00;;;;;;;;;;5093614;28;20032;-77
2022/09/20 12:08:02;;;;;;;3.97;1.05;;;;;;;;;;5093992;28;20069;-77
2022/09/20 12:10:34;;;;;;;1.70;1.25;;;;;;;;;;5092376;28;20020;-77
2022/09/20 12:13:05;;;;;;;3.42;1.30;;;;;;;;;;5093600;28;20028;-76
2022/09/20 12:15:37;;;;;;;4.38;1.80;;;;;;;;;;5093452;28;20049;-76
2022/09/20 12:18:07;;;;;;;3.63;1.40;;;;;;;;;;5093866;28;20034;-76
2022/09/20 12:20:41;;;;;;;4.32;1.40;;;;;;;;;;5093579;28;20016;-76
2022/09/20 12:23:37;;;;;;;3.35;1.67;;;;;;;;;;5093841;28;20123;-77
2022/09/20 12:26:05;;;;;;;5.10;1.40;;;;;;;;;;5093271;28;20028;-76
2022/09/20 12:28:35;;;;;;;4.20;1.27;;;;;;;;;;5093288;28;20032;-76
2022/09/20 12:31:37;;;;;;;3.65;1.50;;;;;;;;;;5093439;28;20446;-77
2022/09/20 12:34:12;;;;;;;1.58;1.00;;;;;;;;;;5093368;28;20085;-76
2022/09/20 12:37:03;;;;;;;3.70;1.10;;;;;;;;;;5093413;28;20418;-77
2022/09/20 12:39:33;;;;;;;3.17;1.08;;;;;;;;;;5091643;28;20073;-77
2022/09/20 12:42:02;;;;;;;2.08;1.10;;;;;;;;;;5091849;28;20400;-76
2022/09/20 12:44:42;;;;;;;1.40;1.00;;;;;;;;;;5091606;28;20076;-77
2022/09/20 12:47:11;;;;;;;2.17;1.20;;;;;;;;;;5094835;28;20028;-77
2022/09/20 12:55:28;;;;;;;3.15;1.20;;;;;;;;;;5097385;28;20035;-77
2022/09/20 12:58:02;;;;;;;2.00;1.30;;;;;;;;;;5097583;28;20020;-77
2022/09/20 13:00:38;;;;;;;4.53;1.40;;;;;;;;;;5096708;28;20051;-77
2022/09/20 13:03:26;;;;;;;4.18;1.40;;;;;;;;;;5097540;28;20550;-77
2022/09/20 13:06:13;;;;;;;2.20;1.40;;;;;;;;;;5096246;28;20049;-76
2022/09/20 13:08:50;;;;;;;3.40;1.27;;;;;;;;;;5097562;28;20150;-77
2022/09/20 13:11:37;;;;;;;3.28;1.20;;;;;;;;;;5098020;28;20032;-76
2022/09/20 13:14:15;;;;;;;1.85;0.90;;;;;;;;;;5097049;28;20020;-76
2022/09/20 13:16:52;;;;;;;2.30;1.20;;;;;;;;;;5097686;28;20073;-75
2022/09/20 13:19:27;;;;;;;2.60;0.93;;;;;;;;;;5095803;28;20046;-77
2022/09/20 13:21:56;;;;;;;2.97;1.10;;;;;;;;;;5095652;28;20020;-76
2022/09/20 13:24:24;;;;;;;3.33;1.27;;;;;;;;;;5097069;28;20028;-76
2022/09/20 13:26:51;;;;;;;1.90;0.93;;;;;;;;;;5095708;28;20051;-78
2022/09/20 13:29:28;;;;;;;1.48;1.00;;;;;;;;;;5097271;28;20530;-75
2022/09/20 13:31:55;;;;;;;1.70;1.10;;;;;;;;;;5095454;28;20028;-76
2022/09/20 13:34:23;;;;;;;2.50;1.10;;;;;;;;;;5097159;28;20026;-76
2022/09/20 13:36:53;;;;;;;2.45;0.90;;;;;;;;;;5097084;28;20023;-76
2022/09/20 13:39:24;;;;;;;4.00;1.10;;;;;;;;;;5096894;28;20024;-76
2022/09/20 13:41:50;;;;;;;2.47;1.02;;;;;;;;;;5096550;28;20020;-76
2022/09/20 13:44:16;;;;;;;1.13;0.82;;;;;;;;;;5096562;28;20035;-77
2022/09/20 13:46:44;;;;;;;4.05;1.10;;;;;;;;;;5096469;28;20020;-77
2022/09/20 13:49:20;;;;;;;2.53;1.00;;;;;;;;;;5096205;28;20024;-77
2022/09/20 13:51:47;;;;;;;2.15;0.90;;;;;;;;;;5094901;28;20118;-76
2022/09/20 13:54:38;;;;;;;2.72;1.08;;;;;;;;;;5096259;28;20020;-77
2022/09/20 13:57:17;;;;;;;3.25;1.10;;;;;;;;;;5090110;28;20123;-77
2022/09/20 13:59:45;;;;;;;3.72;0.90;;;;;;;;;;5093168;28;20066;-77
2022/09/20 14:02:21;;;;;;;2.65;0.80;;;;;;;;;;5095651;28;20392;-77
2022/09/20 14:04:49;;;;;;;1.35;0.60;;;;;;;;;;5096020;28;20038;-77
2022/09/20 14:07:15;;;;;;;1.42;0.50;;;;;;;;;;5096290;28;20101;-77
2022/09/20 14:09:40;;;;;;;0.60;0.30;;;;;;;;;;5095699;28;20032;-77
2022/09/20 14:12:06;;;;;;;0.40;0.40;;;;;;;;;;5095736;28;20032;-77
2022/09/20 14:14:33;;;;;;;1.70;0.70;;;;;;;;;;5095860;28;20028;-77
2022/09/20 14:17:00;;;;;;;3.92;1.08;;;;;;;;;;5094380;28;20362;-77
2022/09/20 14:19:49;;;;;;;2.35;0.70;;;;;;;;;;5095583;28;20024;-77
2022/09/20 14:22:19;;;;;;;0.88;0.60;;;;;;;;;;5094240;28;20051;-77
2022/09/20 14:24:58;;;;;;;0.77;0.55;;;;;;;;;;5095843;28;20020;-78
2022/09/20 14:27:23;;;;;;;0.85;0.70;;;;;;;;;;5095653;28;20028;-77
2022/09/20 14:29:50;;;;;;;1.35;0.60;;;;;;;;;;5095506;28;20028;-77
2022/09/20 14:32:25;;;;;;;0.68;0.50;;;;;;;;;;5095521;28;20454;-76
2022/09/20 14:35:20;;;;;;;0.80;0.50;;;;;;;;;;5095157;28;20385;-78
2022/09/20 14:37:49;;;;;;;1.33;0.70;;;;;;;;;;5094846;28;20024;-77
2022/09/20 14:40:16;;;;;;;1.30;0.70;;;;;;;;;;5093613;28;20049;-77
2022/09/20 14:42:45;;;;;;;0.73;0.60;;;;;;;;;;5093442;28;20062;-77
2022/09/20 14:45:37;;;;;;;0.70;0.70;;;;;;;;;;5095027;28;20024;-77
2022/09/20 14:48:25;;;;;;;0.70;0.70;;;;;;;;;;5093587;28;20016;-77
2022/09/20 14:51:09;;;;;;;1.20;0.70;;;;;;;;;;5095402;28;20032;-77
2022/09/20 14:53:37;;;;;;;1.50;0.90;;;;;;;;;;5093859;28;20024;-77
2022/09/20 14:56:05;;;;;;;1.00;0.80;;;;;;;;;;5093933;28;20028;-77
2022/09/20 14:58:54;;;;;;;2.10;0.90;;;;;;;;;;5094646;28;20023;-77
2022/09/20 15:01:24;;;;;;;1.33;1.00;;;;;;;;;;5094608;28;20111;-77
2022/09/20 15:03:50;;;;;;;1.05;0.80;;;;;;;;;;5093627;28;20020;-77
2022/09/20 15:06:16;;;;;;;2.60;1.10;;;;;;;;;;5094647;28;20035;-77
2022/09/20 15:08:41;;;;;;;2.03;1.10;;;;;;;;;;5094666;28;20038;-78
2022/09/20 15:11:17;;;;;;;2.83;0.80;;;;;;;;;;5094146;28;20063;-77
2022/09/20 15:13:43;;;;;;;1.75;0.80;;;;;;;;;;5094303;28;20016;-77
2022/09/20 15:16:11;;;;;;;2.10;0.90;;;;;;;;;;5094214;28;20020;-77
2022/09/20 15:18:43;;;;;;;1.23;0.90;;;;;;;;;;5094173;28;20473;-77
2022/09/20 15:21:10;;;;;;;1.98;0.73;;;;;;;;;;5092897;28;20062;-77
2022/09/20 15:23:36;;;;;;;2.25;0.70;;;;;;;;;;5094681;28;20031;-77
2022/09/20 15:26:01;;;;;;;0.50;0.47;;;;;;;;;;5092785;28;20483;-77
2022/09/20 15:28:27;;;;;;;4.78;0.70;;;;;;;;;;5094042;28;20028;-77
2022/09/20 15:30:52;;;;;;;1.27;0.55;;;;;;;;;;5094081;28;20024;-77
2022/09/20 15:33:20;;;;;;;2.70;1.10;;;;;;;;;;5092813;28;20524;-77
2022/09/20 15:35:45;;;;;;;1.92;0.90;;;;;;;;;;5093933;28;20035;-77
2022/09/20 15:38:11;;;;;;;1.10;0.77;;;;;;;;;;5094381;28;20373;-77
2022/09/20 15:40:46;;;;;;;1.42;0.55;;;;;;;;;;5094020;28;20035;-77
2022/09/20 15:43:15;;;;;;;1.13;0.55;;;;;;;;;;5093741;28;20489;-77
2022/09/20 15:45:50;;;;;;;2.75;0.73;;;;;;;;;;5094232;28;20446;-76
2022/09/20 15:48:20;;;;;;;0.70;0.65;;;;;;;;;;5092730;28;20032;-77
2022/09/20 15:51:07;;;;;;;0.68;0.60;;;;;;;;;;5093864;28;20052;-77
2022/09/20 15:53:38;;;;;;;0.57;0.57;;;;;;;;;;5093802;28;20077;-76
2022/09/20 15:56:14;;;;;;;3.05;0.90;;;;;;;;;;5093925;28;20032;-77
2022/09/20 15:58:44;;;;;;;1.65;0.70;;;;;;;;;;5094575;28;20016;-78